Weerspreuk van de week. Houden de kraaien voor Allerheiligen al school, zorg dan voor hout en kool.
Het weer levert geen direct gevaar op.    Er zijn geen waarschuwingen afgegeven.

Onweer radar Meer informatie blitzortung!


Regen radar Meer informatie rain snow radar


Bekijk deze sites ook eens:

FPL Automotive (TIP)

Autostekkers.nl (TIP)

Over Luyksgestel

De Kempen, mijn omgeving

BOL.com

Weerstation Noordbergum

Inktweb

Weerstation Hapert

Weerstation Hoogeloon

Weerstation Son&Breugel

Weerstation Castaert

Smartphonehoesjes

Weerstation Tilburg Reeshof

Weerstation Scheulder

Weerverwachting Samos

Samos actueel

Weerwoord (forum)

Griekenlandforum

Vakantie naar Samos

Zomerzon

Canon

Wolven in Nederland



METAR rapporten vliegvelden

   
EBAW - Antwerp
Gewijzigd: 14-11-2019 04:50
Helder  
Helder  
   Wind: OZO 18.5 km/h
Wind: OZO 18.5 km/h
Temperatuur: 5°C
Voelt als: 1°C
Dauwpunt: 3°C
Vochtigheid: 87%
Barometer: 996 hPa
Zicht: meer dan 10 km
Bewolking: Helder
EBAW 140350Z AUTO 11010KT CAVOK 05/03 Q0996
EBLG - Liège
Gewijzigd: 14-11-2019 04:50
Helder  
Helder  
   Wind: ZZO 18.5 km/h
Wind: ZZO 18.5 km/h
Temperatuur: 5°C
Voelt als: 1°C
Dauwpunt: 2°C
Vochtigheid: 81%
Barometer: 997 hPa
Zicht: meer dan 10 km
Bewolking: Helder
EBLG 140350Z 16010KT 130V190 CAVOK 05/02 Q0997 NOSIG
EBCV - Mons/Bergen
Gewijzigd: 14-11-2019 04:25
Grotendeels bewolkt  
Grotendeels bewolkt  
   Wind: ZO 18.5 km/h
Wind: ZO 18.5 km/h
Temperatuur: 6°C
Voelt als: 3°C
Dauwpunt: 3°C
Vochtigheid: 81%
Barometer: 995 hPa
Bewolking: Grotendeels bewolkt
Zicht: meer dan 10 km
Bewolking: Gedeeltelijk bewolkt 6600 ft,
Grotendeels bewolkt 8400 ft,
Grotendeels bewolkt 11000 ft
EBCV 140325Z AUTO 14010KT 9999 SCT066/// BKN084/// BKN110/// 06/03 Q0995 BLU
EHBK - Maastricht
Gewijzigd: 14-11-2019 04:55
Licht bewolkt  
Licht bewolkt  
   Wind: Oosten 13 km/h
Wind: Oosten 13 km/h
Temperatuur: 2°C
Voelt als: -2°C
Dauwpunt: 1°C
Vochtigheid: 93%
Barometer: 998 hPa
Bewolking: Licht bewolkt
Zicht: meer dan 10 km
Bewolking: Licht bewolkt 3300 ft
EHBK 140355Z AUTO 10007KT 9999 FEW033 02/01 Q0998
ELLX - Luxemburg
Gewijzigd: 14-11-2019 04:50
Grotendeels bewolkt  
Grotendeels bewolkt  
   Wind: ZO 18.5 km/h
Wind: ZO 18.5 km/h
Temperatuur: 3°C
Voelt als: -1°C
Dauwpunt: 2°C
Vochtigheid: 93%
Barometer: 999 hPa
Bewolking: Grotendeels bewolkt
Zicht: meer dan 10 km
Bewolking: Gedeeltelijk bewolkt 600 ft,
Grotendeels bewolkt 800 ft
ELLX 140350Z 14010KT 9999 SCT006 BKN008 03/02 Q0999 NOSIG
EBOS - Oostende
Gewijzigd: 14-11-2019 04:50
Licht bewolkt  
Licht bewolkt  
   Wind: ZO 25.9 km/h
Wind: ZO 25.9 km/h
Temperatuur: 6°C
Voelt als: 2°C
Dauwpunt: 3°C
Vochtigheid: 81%
Barometer: 993 hPa
Bewolking: Licht bewolkt
Zicht: meer dan 10 km
Bewolking: Licht bewolkt 1500 ft
EBOS 140350Z 13014KT 9999 FEW015 06/03 Q0993 TEMPO 4000 RA BKN012

Script ontwikkeld door  Saratoga-weather.org Aangepast voor de template door  Weerstation Leuven

U vindt ons ook hier:

Het Weer Aktueel

UK Metoffice

European Weather Network

Weather Underground

AWEKAS